Time;durP1;ratioP1;P1;durP2;ratioP2;P2;SDS_P1;SDS_P2;PMS_P1;PMS_P2;Temp;Humidity;BMP_temperature;BMP_pressure;BME280_temperature;BME280_humidity;BME280_pressure;Samples;Min_cycle;Max_cycle;Signal;HPM_P1;HPM_P2
2022/04/24 00:00:56;;;;;;;8.80;4.80;;;;;;;4.39;100.00;100141.53;4918606;29;20067;-79
2022/04/24 00:03:23;;;;;;;9.03;5.13;;;;;;;4.50;100.00;100131.88;4902070;29;20469;-82
2022/04/24 00:05:53;;;;;;;7.33;4.63;;;;;;;4.62;100.00;100137.91;4910851;29;20043;-80
2022/04/24 00:08:25;;;;;;;7.80;4.73;;;;;;;4.47;100.00;100139.75;4901190;29;20051;-83
2022/04/24 00:10:53;;;;;;;9.10;4.67;;;;;;;4.51;100.00;100145.81;4896382;29;20493;-81
2022/04/24 00:13:20;;;;;;;10.50;4.90;;;;;;;4.40;100.00;100142.38;4899210;29;20071;-81
2022/04/24 00:15:47;;;;;;;8.13;4.90;;;;;;;4.49;100.00;100142.34;4901319;29;20047;-81
2022/04/24 00:18:15;;;;;;;9.77;5.23;;;;;;;4.49;100.00;100129.25;4917840;29;20039;-82
2022/04/24 00:20:43;;;;;;;7.70;4.43;;;;;;;4.52;100.00;100118.78;4881578;29;20126;-79
2022/04/24 00:23:09;;;;;;;8.93;4.50;;;;;;;4.54;100.00;100127.50;4883264;29;20054;-80
2022/04/24 00:25:39;;;;;;;7.53;4.67;;;;;;;4.60;100.00;100132.69;4910001;29;20055;-81
2022/04/24 00:28:06;;;;;;;8.60;4.50;;;;;;;4.59;100.00;100119.63;4899455;29;20063;-79
2022/04/24 00:30:33;;;;;;;9.03;5.70;;;;;;;4.70;100.00;100112.59;4885502;29;20043;-80
2022/04/24 00:32:59;;;;;;;8.03;4.50;;;;;;;4.68;100.00;100115.22;4900586;29;20071;-78
2022/04/24 00:35:31;;;;;;;7.73;4.27;;;;;;;4.77;100.00;100114.28;4883098;29;20047;-81
2022/04/24 00:37:58;;;;;;;7.73;5.20;;;;;;;4.82;100.00;100112.53;4902731;29;20039;-80
2022/04/24 00:40:25;;;;;;;7.33;4.43;;;;;;;4.80;100.00;100103.81;4883486;29;20135;-77
2022/04/24 00:42:56;;;;;;;9.13;4.10;;;;;;;4.82;100.00;100109.91;4901774;29;20233;-80
2022/04/24 00:45:24;;;;;;;11.17;5.73;;;;;;;4.84;100.00;100097.69;4885511;29;20454;-81
2022/04/24 00:47:51;;;;;;;6.43;4.47;;;;;;;4.86;100.00;100095.91;4902456;29;20049;-79
2022/04/24 00:50:21;;;;;;;7.40;4.40;;;;;;;4.92;100.00;100093.25;4886301;29;20040;-80
2022/04/24 00:52:49;;;;;;;7.83;4.80;;;;;;;5.02;100.00;100094.94;4886905;29;20115;-83
2022/04/24 00:55:28;;;;;;;9.37;3.93;;;;;;;4.95;100.00;100098.47;4913011;29;20040;-81
2022/04/24 00:58:00;;;;;;;7.07;4.65;;;;;;;5.07;100.00;100093.16;4904777;29;20035;-81
2022/04/24 01:00:32;;;;;;;8.43;4.20;;;;;;;5.05;100.00;100094.94;4886878;29;20040;-82
2022/04/24 01:03:05;;;;;;;6.53;4.27;;;;;;;5.07;100.00;100095.78;4901144;29;20102;-81
2022/04/24 01:05:42;;;;;;;8.83;4.13;;;;;;;5.11;100.00;100085.28;4915216;29;20133;-82
2022/04/24 01:08:16;;;;;;;7.83;3.80;;;;;;;5.16;100.00;100083.50;4893883;29;20048;-82
2022/04/24 01:10:46;;;;;;;8.33;4.23;;;;;;;5.16;100.00;100079.13;4903067;29;20073;-82
2022/04/24 01:13:22;;;;;;;8.60;3.80;;;;;;;5.10;100.00;100071.31;4889607;29;20058;-82
2022/04/24 01:15:57;;;;;;;7.10;4.20;;;;;;;5.17;100.00;100080.00;4901096;29;20547;-79
2022/04/24 01:18:31;;;;;;;7.23;3.80;;;;;;;5.11;100.00;100072.19;4899844;29;20078;-83
2022/04/24 01:21:11;;;;;;;4.93;3.40;;;;;;;5.07;100.00;100066.97;4888714;29;20068;-82
2022/04/24 01:23:44;;;;;;;6.87;4.53;;;;;;;5.08;100.00;100068.72;4896125;29;20067;-82
2022/04/24 01:26:16;;;;;;;5.05;3.60;;;;;;;5.00;100.00;100065.28;4900054;29;20498;-82
2022/04/24 01:28:43;;;;;;;8.67;4.60;;;;;;;5.09;100.00;100059.97;4883029;29;20052;-82
2022/04/24 01:31:12;;;;;;;7.73;4.03;;;;;;;5.06;100.00;100065.25;4898527;29;20131;-80
2022/04/24 01:33:46;;;;;;;7.40;4.40;;;;;;;5.14;100.00;100061.72;4891348;29;20052;-81
2022/04/24 01:36:15;;;;;;;7.00;4.23;;;;;;;5.14;100.00;100061.72;4891602;29;20118;-81
2022/04/24 01:38:56;;;;;;;6.30;3.80;;;;;;;5.08;100.00;100060.00;4891367;29;20483;-81
2022/04/24 01:41:24;;;;;;;8.50;4.00;;;;;;;5.06;100.00;100060.00;4882809;29;20040;-81
2022/04/24 01:43:57;;;;;;;6.53;3.90;;;;;;;5.09;100.00;100062.59;4899927;29;20573;-80
2022/04/24 01:46:27;;;;;;;7.67;4.10;;;;;;;5.11;100.00;100056.47;4884879;29;20126;-79
2022/04/24 01:49:06;;;;;;;5.97;3.63;;;;;;;5.11;100.00;100056.47;4884761;29;20066;-79
2022/04/24 01:51:34;;;;;;;6.77;4.53;;;;;;;5.10;100.00;100050.38;4887860;29;20094;-82
2022/04/24 01:54:09;;;;;;;6.20;3.77;;;;;;;5.09;100.00;100056.50;4895696;29;20100;-82
2022/04/24 01:56:46;;;;;;;5.70;3.53;;;;;;;5.03;100.00;100057.41;4911388;29;20497;-80
2022/04/24 01:59:14;;;;;;;6.53;3.73;;;;;;;5.16;100.00;100049.47;4881950;29;20482;-79
2022/04/24 02:01:41;;;;;;;8.03;4.43;;;;;;;5.05;100.00;100050.44;4887275;29;20042;-80
2022/04/24 02:04:12;;;;;;;9.83;5.33;;;;;;;5.13;100.00;100049.47;4906413;29;20401;-81
2022/04/24 02:06:44;;;;;;;8.33;4.33;;;;;;;5.09;100.00;100048.63;4905014;29;20047;-82
2022/04/24 02:09:15;;;;;;;6.33;3.70;;;;;;;5.09;100.00;100041.66;4884078;29;20133;-81
2022/04/24 02:11:47;;;;;;;8.40;4.13;;;;;;;5.16;100.00;100049.47;4910369;29;20138;-82
2022/04/24 02:14:20;;;;;;;8.23;5.20;;;;;;;5.05;100.00;100050.44;4898259;29;20051;-82
2022/04/24 02:16:48;;;;;;;9.50;4.50;;;;;;;5.04;100.00;100040.84;4894793;29;20044;-81
2022/04/24 02:19:26;;;;;;;7.97;5.07;;;;;;;5.14;100.00;100046.00;4896614;29;20498;-82
2022/04/24 02:21:59;;;;;;;11.83;5.10;;;;;;;5.05;100.00;100045.19;4892398;29;20047;-80
2022/04/24 02:24:28;;;;;;;8.43;4.10;;;;;;;5.03;100.00;100039.06;4900445;29;20178;-81
2022/04/24 02:26:58;;;;;;;7.63;4.37;;;;;;;5.08;100.00;100039.91;4906178;29;20039;-81
2022/04/24 02:29:39;;;;;;;10.33;4.87;;;;;;;5.07;100.00;100045.16;4896986;29;20054;-83
2022/04/24 02:32:10;;;;;;;8.17;4.43;;;;;;;5.14;100.00;100040.75;4903693;29;20052;-78
2022/04/24 02:34:43;;;;;;;11.87;4.43;;;;;;;5.04;100.00;100039.94;4900176;29;20071;-82
2022/04/24 02:37:18;;;;;;;8.70;4.80;;;;;;;5.02;100.00;100042.56;4886504;29;20131;-80
2022/04/24 02:39:51;;;;;;;7.37;4.57;;;;;;;5.01;100.00;100037.34;4904831;29;20417;-80
2022/04/24 02:42:17;;;;;;;7.83;4.50;;;;;;;5.00;100.00;100035.63;4900432;29;20047;-81
2022/04/24 02:44:44;;;;;;;7.37;4.97;;;;;;;5.03;100.00;100041.69;4890511;29;20044;-80
2022/04/24 02:47:34;;;;;;;8.63;5.00;;;;;;;4.96;100.00;100037.41;4906537;29;20044;-81
2022/04/24 02:50:01;;;;;;;10.53;6.10;;;;;;;4.95;100.00;100035.66;4896593;29;20048;-79
2022/04/24 02:52:30;;;;;;;10.43;5.20;;;;;;;5.01;100.00;100029.50;4924631;29;20531;-79
2022/04/24 02:54:57;;;;;;;9.60;4.40;;;;;;;4.99;100.00;100028.66;4900929;29;20430;-80
2022/04/24 02:57:32;;;;;;;10.00;5.10;;;;;;;5.00;100.00;100039.09;4903250;29;20485;-79
2022/04/24 03:00:00;;;;;;;8.67;4.83;;;;;;;4.99;100.00;100031.28;4916085;29;20412;-79
2022/04/24 03:02:28;;;;;;;9.20;4.50;;;;;;;4.90;100.00;100029.59;4904036;29;20044;-78
2022/04/24 03:04:57;;;;;;;6.90;4.43;;;;;;;4.91;100.00;100027.84;4914807;29;20050;-79
2022/04/24 03:07:24;;;;;;;7.07;4.60;;;;;;;4.88;100.00;100014.78;4902227;29;20059;-84
2022/04/24 03:09:51;;;;;;;9.23;5.17;;;;;;;4.89;100.00;100019.16;4902847;29;20048;-80
2022/04/24 03:12:40;;;;;;;10.90;5.00;;;;;;;4.88;100.00;100015.66;4888359;29;20046;-83
2022/04/24 03:15:08;;;;;;;10.30;4.90;;;;;;;4.85;100.00;100015.66;4908555;29;20047;-78
2022/04/24 03:17:37;;;;;;;9.50;5.30;;;;;;;4.79;100.00;100019.22;4909264;29;20100;-81
2022/04/24 03:20:07;;;;;;;8.47;5.07;;;;;;;4.78;100.00;100004.38;4885851;29;20043;-83
2022/04/24 03:22:35;;;;;;;13.20;6.10;;;;;;;4.79;100.00;100011.38;4899718;29;20051;-80
2022/04/24 03:25:12;;;;;;;9.87;5.67;;;;;;;4.78;100.00;100016.59;4887263;29;20044;-81
2022/04/24 03:27:39;;;;;;;12.63;6.25;;;;;;;4.77;100.00;100015.72;4928735;29;20102;-81
2022/04/24 03:30:08;;;;;;;13.93;7.10;;;;;;;4.78;100.00;100006.13;4892750;29;20044;-84
2022/04/24 03:32:35;;;;;;;8.20;5.60;;;;;;;4.73;100.00;100011.41;4899148;29;20043;-80
2022/04/24 03:35:04;;;;;;;11.30;7.50;;;;;;;4.81;100.00;100003.50;4904658;29;20043;-86
2022/04/24 03:37:36;;;;;;;9.43;6.23;;;;;;;4.76;100.00;100007.88;4894693;29;20039;-80
2022/04/24 03:40:03;;;;;;;13.77;7.63;;;;;;;4.80;100.00;100005.25;4911416;29;20039;-80
2022/04/24 03:42:36;;;;;;;12.57;7.20;;;;;;;4.76;100.00;100002.66;4918479;29;20549;-80
2022/04/24 03:45:06;;;;;;;11.83;6.60;;;;;;;4.76;100.00;99998.28;4917925;29;20050;-80
2022/04/24 03:47:33;;;;;;;9.93;5.70;;;;;;;4.77;100.00;99999.16;4901203;29;20051;-82
2022/04/24 03:50:00;;;;;;;14.53;7.93;;;;;;;4.79;100.00;100000.91;4915231;29;20047;-82
2022/04/24 03:52:31;;;;;;;10.40;7.13;;;;;;;4.80;100.00;99996.53;4889476;29;20063;-80
2022/04/24 03:54:58;;;;;;;9.73;7.00;;;;;;;4.83;100.00;99991.25;4900112;29;20040;-79
2022/04/24 03:57:31;;;;;;;10.37;7.03;;;;;;;4.73;100.00;99993.09;4922815;29;20043;-82
2022/04/24 04:00:02;;;;;;;12.27;8.48;;;;;;;4.65;100.00;99989.66;4904879;29;20044;-86
2022/04/24 04:02:29;;;;;;;13.23;8.47;;;;;;;4.66;100.00;99980.91;4886792;29;20048;-80
2022/04/24 04:04:57;;;;;;;16.17;8.50;;;;;;;4.65;100.00;99986.16;4901721;29;20394;-83
2022/04/24 04:07:27;;;;;;;16.83;8.57;;;;;;;4.72;100.00;99985.25;4935175;29;20036;-82
2022/04/24 04:09:56;;;;;;;15.10;8.87;;;;;;;4.75;100.00;99990.44;4915957;29;20130;-79
2022/04/24 04:12:27;;;;;;;17.70;8.53;;;;;;;4.74;100.00;99984.34;4888876;29;20107;-80
2022/04/24 04:14:57;;;;;;;13.97;8.90;;;;;;;4.72;100.00;99985.25;4916995;29;20048;-85
2022/04/24 04:17:24;;;;;;;14.13;8.00;;;;;;;4.73;100.00;99979.13;4907471;29;20036;-80
2022/04/24 04:19:51;;;;;;;11.90;7.40;;;;;;;4.79;100.00;99982.56;4905304;29;20052;-80
2022/04/24 04:22:17;;;;;;;15.80;9.10;;;;;;;4.77;100.00;99984.31;4889096;29;20044;-82
2022/04/24 04:24:44;;;;;;;14.87;8.70;;;;;;;4.78;100.00;99988.66;4896032;29;20520;-82
2022/04/24 04:27:11;;;;;;;18.23;8.40;;;;;;;4.76;100.00;99989.56;4889570;29;20043;-80
2022/04/24 04:29:38;;;;;;;14.67;8.60;;;;;;;4.71;100.00;99984.38;4901421;29;20091;-82
2022/04/24 04:32:05;;;;;;;14.17;9.00;;;;;;;4.79;100.00;99986.91;4884847;29;20043;-83
2022/04/24 04:34:34;;;;;;;14.03;9.53;;;;;;;4.83;100.00;99985.16;4883638;29;20127;-81
2022/04/24 04:37:01;;;;;;;15.07;8.50;;;;;;;4.81;100.00;99979.94;4897370;29;20082;-80
2022/04/24 04:39:28;;;;;;;14.63;9.20;;;;;;;4.87;100.00;99979.88;4901672;29;20078;-82
2022/04/24 04:41:57;;;;;;;15.87;9.47;;;;;;;4.90;100.00;99987.72;4903301;29;20059;-82
2022/04/24 04:44:24;;;;;;;13.83;8.43;;;;;;;4.88;100.00;99991.25;4897206;29;20047;-82
2022/04/24 04:46:52;;;;;;;15.63;8.13;;;;;;;4.94;100.00;99991.16;4905350;29;20421;-80
2022/04/24 04:49:19;;;;;;;15.50;9.00;;;;;;;5.05;100.00;99990.22;4905357;29;20047;-80
2022/04/24 04:51:46;;;;;;;12.17;7.83;;;;;;;5.06;100.00;99993.69;4932226;29;20098;-83
2022/04/24 04:54:13;;;;;;;14.10;8.37;;;;;;;5.03;100.00;99996.31;4900536;29;20043;-83
2022/04/24 04:56:40;;;;;;;13.30;8.83;;;;;;;5.09;100.00;99999.75;4896658;29;20051;-79
2022/04/24 04:59:07;;;;;;;18.17;10.10;;;;;;;5.19;100.00;99992.69;4879042;29;20047;-82
2022/04/24 05:01:33;;;;;;;15.70;8.67;;;;;;;5.15;100.00;100000.59;4907335;29;20390;-83
2022/04/24 05:04:01;;;;;;;16.73;9.30;;;;;;;5.24;100.00;99997.91;4919266;29;20044;-81
2022/04/24 05:06:28;;;;;;;17.20;10.00;;;;;;;5.30;100.00;100000.47;4902178;29;20131;-79
2022/04/24 05:08:55;;;;;;;16.20;8.77;;;;;;;5.32;100.00;99996.06;4915075;29;20048;-81
2022/04/24 05:11:22;;;;;;;15.03;8.90;;;;;;;5.25;100.00;100002.25;4933511;29;20051;-82
2022/04/24 05:13:55;;;;;;;15.50;9.40;;;;;;;5.27;100.00;100000.47;4883473;29;20054;-82
2022/04/24 05:16:22;;;;;;;15.73;9.07;;;;;;;5.30;100.00;100009.19;4895060;29;20062;-82
2022/04/24 05:18:51;;;;;;;16.50;9.23;;;;;;;5.31;100.00;100008.31;4915240;29;20032;-83
2022/04/24 05:21:18;;;;;;;14.40;8.87;;;;;;;5.40;100.00;100004.72;4926269;29;20047;-79
2022/04/24 05:23:48;;;;;;;15.30;9.17;;;;;;;5.45;100.00;100004.66;4898017;29;20052;-85
2022/04/24 05:26:15;;;;;;;17.57;9.10;;;;;;;5.45;100.00;99997.66;4903813;29;20039;-83
2022/04/24 05:28:48;;;;;;;16.57;9.70;;;;;;;5.51;100.00;100005.47;4913387;29;20044;-83
2022/04/24 05:31:22;;;;;;;18.42;9.48;;;;;;;5.69;100.00;100009.66;4901510;29;20441;-82
2022/04/24 05:33:49;;;;;;;11.17;7.53;;;;;;;5.67;100.00;100000.94;4894175;29;20055;-80
2022/04/24 05:36:25;;;;;;;14.27;8.73;;;;;;;5.72;100.00;100006.09;4899519;29;20043;-83
2022/04/24 05:38:57;;;;;;;12.93;8.60;;;;;;;5.73;100.00;100000.00;4902040;29;20493;-82
2022/04/24 05:41:23;;;;;;;14.23;8.53;;;;;;;5.62;100.00;100002.72;4878044;29;20051;-81
2022/04/24 05:43:50;;;;;;;16.33;9.07;;;;;;;5.80;100.00;100002.53;4897647;29;20529;-83
2022/04/24 05:46:17;;;;;;;12.70;8.17;;;;;;;5.92;100.00;99998.94;4884438;29;20043;-82
2022/04/24 05:48:43;;;;;;;11.90;8.20;;;;;;;5.92;100.00;100006.78;4911936;29;20043;-81
2022/04/24 05:51:10;;;;;;;15.67;8.27;;;;;;;6.08;100.00;99997.84;4910784;29;20304;-80
2022/04/24 05:53:37;;;;;;;13.43;8.50;;;;;;;6.00;100.00;99993.59;4897439;29;20056;-80
2022/04/24 05:56:04;;;;;;;14.93;9.67;;;;;;;6.06;100.00;100004.88;4895568;29;20066;-79
2022/04/24 05:58:31;;;;;;;15.33;8.10;;;;;;;6.11;100.00;99999.56;4916870;23;20027;-82
2022/04/24 06:00:57;;;;;;;12.73;7.90;;;;;;;6.13;100.00;99995.16;4920134;29;20042;-81
2022/04/24 06:03:24;;;;;;;14.20;8.97;;;;;;;6.19;100.00;99998.56;4918923;29;20044;-80
2022/04/24 06:05:51;;;;;;;14.13;7.43;;;;;;;6.19;100.00;100001.19;4935257;29;20055;-82
2022/04/24 06:08:17;;;;;;;17.33;9.50;;;;;;;6.16;100.00;99992.50;4936912;29;20051;-82
2022/04/24 06:10:44;;;;;;;15.23;8.07;;;;;;;6.18;100.00;99993.34;4928958;28;20050;-81
2022/04/24 06:13:11;;;;;;;16.07;8.87;;;;;;;6.24;100.00;99993.28;4933793;28;20039;-79
2022/04/24 06:15:38;;;;;;;12.97;8.07;;;;;;;6.26;100.00;99994.13;4936203;29;20039;-79
2022/04/24 06:18:05;;;;;;;14.33;8.63;;;;;;;6.46;100.00;99994.69;4934041;29;20070;-80
2022/04/24 06:20:32;;;;;;;13.43;9.53;;;;;;;6.39;100.00;99997.44;4952542;28;20043;-79
2022/04/24 06:22:59;;;;;;;12.73;8.10;;;;;;;6.30;100.00;100002.81;4934687;29;20109;-81
2022/04/24 06:25:33;;;;;;;13.50;8.07;;;;;;;6.24;100.00;99997.66;4927704;29;20044;-80
2022/04/24 06:28:01;;;;;;;13.38;8.32;;;;;;;6.44;100.00;100000.88;4934101;28;20035;-81
2022/04/24 06:30:30;;;;;;;14.20;8.77;;;;;;;6.49;100.00;100005.16;4936648;28;20097;-81
2022/04/24 06:32:57;;;;;;;12.53;7.70;;;;;;;6.62;100.00;100000.59;4921236;29;20039;-80
2022/04/24 06:35:25;;;;;;;16.27;8.03;;;;;;;6.59;100.00;99998.03;4922735;28;20043;-81
2022/04/24 06:37:55;;;;;;;12.57;8.23;;;;;;;6.70;100.00;99998.72;4922425;29;20066;-81
2022/04/24 06:40:23;;;;;;;12.87;8.70;;;;;;;6.83;100.00;99993.28;4933294;29;20039;-81
2022/04/24 06:42:51;;;;;;;11.53;8.27;;;;;;;6.87;100.00;100000.22;4918796;29;20134;-81
2022/04/24 06:45:35;;;;;;;11.73;8.10;;;;;;;6.93;100.00;100005.38;4933930;29;20069;-81
2022/04/24 06:48:04;;;;;;;13.98;8.32;;;;;;;6.81;100.00;100003.81;4949023;28;20102;-81
2022/04/24 06:50:32;;;;;;;15.30;8.83;;;;;;;6.99;100.00;99998.28;4919457;29;20047;-81
2022/04/24 06:53:03;;;;;;;15.90;9.10;;;;;;;7.22;100.00;99992.59;4935967;29;20456;-81
2022/04/24 06:55:32;;;;;;;12.87;8.60;;;;;;;7.08;100.00;99993.75;4950101;28;20051;-82
2022/04/24 06:57:59;;;;;;;11.33;8.03;;;;;;;7.06;100.00;99996.38;4920603;29;20050;-81
2022/04/24 07:00:27;;;;;;;14.13;8.93;;;;;;;7.25;100.00;99994.34;4915499;29;20047;-82
2022/04/24 07:03:16;;;;;;;11.77;7.57;;;;;;;7.50;100.00;99987.75;4947760;28;20076;-81
2022/04/24 07:05:43;;;;;;;11.90;8.63;;;;;;;7.62;100.00;99981.38;4931981;28;20047;-82
2022/04/24 07:08:09;;;;;;;14.47;8.87;;;;;;;7.57;98.72;99981.47;4918117;28;20035;-81
2022/04/24 07:10:37;;;;;;;15.83;9.30;;;;;;;7.76;99.39;99978.50;4922616;29;20452;-81
2022/04/24 07:13:04;;;;;;;12.07;8.17;;;;;;;8.04;97.64;99976.16;4939056;29;20098;-81
2022/04/24 07:15:34;;;;;;;10.47;7.60;;;;;;;8.21;96.18;99971.38;4926050;28;20039;-82
2022/04/24 07:18:02;;;;;;;12.00;7.97;;;;;;;8.15;94.80;99975.00;4923612;28;20475;-82
2022/04/24 07:20:29;;;;;;;10.77;7.30;;;;;;;8.32;93.37;99974.63;4919680;29;20055;-81
2022/04/24 07:23:00;;;;;;;11.83;8.00;;;;;;;8.37;92.97;99977.22;4936389;29;20049;-81
2022/04/24 07:25:31;;;;;;;11.30;8.33;;;;;;;8.37;92.32;99987.75;4937840;28;20655;-81
2022/04/24 07:27:58;;;;;;;10.60;7.47;;;;;;;8.96;92.07;99972.31;4918363;29;20047;-83
2022/04/24 07:30:24;;;;;;;11.77;7.60;;;;;;;9.72;85.68;99977.34;4951435;28;20055;-81
2022/04/24 07:32:55;;;;;;;11.30;7.38;;;;;;;10.23;100.00;99967.06;4922380;29;20219;-82
2022/04/24 07:35:28;;;;;;;13.10;7.95;;;;;;;9.83;nan;99969.97;4917121;29;20063;-82
2022/04/24 07:37:55;;;;;;;11.60;7.30;;;;;;;10.08;nan;99978.03;4953959;29;20512;-83
2022/04/24 07:40:24;;;;;;;13.35;7.70;;;;;;;9.56;nan;99975.09;4952831;28;20447;-82
2022/04/24 07:42:59;;;;;;;12.77;7.57;;;;;;;9.82;nan;99965.59;4935286;29;20038;-81
2022/04/24 07:45:27;;;;;;;10.18;6.93;;;;;;;9.82;nan;99962.97;4952100;28;20043;-81
2022/04/24 07:47:55;;;;;;;12.20;7.25;;;;;;;10.04;nan;99972.00;4954196;28;20043;-81
2022/04/24 07:50:24;;;;;;;13.27;7.55;;;;;;;9.98;nan;99969.53;4937738;29;20050;-80
2022/04/24 07:52:52;;;;;;;13.48;7.13;;;;;;;10.09;nan;99963.97;4921690;29;20039;-79
2022/04/24 07:55:22;;;;;;;9.85;6.10;;;;;;;10.08;nan;99962.22;4951008;28;20035;-80
2022/04/24 07:57:53;;;;;;;11.60;7.25;;;;;;;9.93;nan;99954.78;4949463;28;20043;-81
2022/04/24 08:00:22;;;;;;;9.35;7.18;;;;;;;10.20;nan;99964.50;4933481;28;20493;-81
2022/04/24 08:03:00;;;;;;;9.27;6.55;;;;;;;9.98;nan;99955.47;4953815;29;20043;-82
2022/04/24 08:05:32;;;;;;;8.35;6.20;;;;;;;10.04;nan;99950.88;4935489;29;20516;-80
2022/04/24 08:08:01;;;;;;;12.20;6.50;;;;;;;10.48;nan;99953.97;4953353;28;20039;-82
2022/04/24 08:10:31;;;;;;;7.95;5.80;;;;;;;10.56;nan;99954.59;4953114;28;20039;-80
2022/04/24 08:12:58;;;;;;;9.30;5.40;;;;;;;11.02;nan;99950.47;4950235;29;20051;-81
2022/04/24 08:15:26;;;;;;;11.65;6.28;;;;;;;11.35;nan;99944.94;4953859;28;20042;-80
2022/04/24 08:17:53;;;;;;;7.97;5.93;;;;;;;11.84;nan;99936.13;4954850;28;20047;-80
2022/04/24 08:20:20;;;;;;;9.45;5.40;;;;;;;11.93;nan;99933.13;4953740;28;20669;-81
2022/04/24 08:22:52;;;;;;;9.00;6.40;;;;;;;12.17;nan;99923.38;4954249;29;20046;-80
2022/04/24 08:25:21;;;;;;;7.65;5.57;;;;;;;12.45;nan;99924.97;4937129;28;20057;-80
2022/04/24 08:27:50;;;;;;;9.73;5.80;;;;;;;12.49;nan;99918.63;4954552;29;20046;-80
2022/04/24 08:30:18;;;;;;;9.88;6.22;;;;;;;12.60;nan;99925.19;4955264;28;20039;-83
2022/04/24 08:32:46;;;;;;;9.20;5.43;;;;;;;12.51;nan;99919.41;4940870;29;20036;-79
2022/04/24 08:35:14;;;;;;;7.82;5.55;;;;;;;12.42;nan;99912.69;4937634;29;20043;-82
2022/04/24 08:37:42;;;;;;;7.82;5.10;;;;;;;12.61;nan;99919.00;4948366;29;20066;-80
2022/04/24 08:40:11;;;;;;;10.20;5.10;;;;;;;12.68;nan;99923.09;4938123;29;20054;-82
2022/04/24 08:42:40;;;;;;;7.80;4.90;;;;;;;12.62;nan;99922.50;4949735;29;20497;-79
2022/04/24 08:45:12;;;;;;;8.55;5.05;;;;;;;12.14;nan;99920.00;4951468;28;20039;-80
2022/04/24 08:47:40;;;;;;;9.75;5.63;;;;;;;12.36;nan;99916.47;4945452;29;20043;-80
2022/04/24 08:50:07;;;;;;;10.43;5.07;;;;;;;12.10;nan;99921.91;4952243;28;20039;-83
2022/04/24 08:52:34;;;;;;;7.10;4.93;;;;;;;12.49;nan;99915.97;4938344;29;20647;-80
2022/04/24 08:55:05;;;;;;;8.00;4.70;;;;;;;12.94;nan;99915.84;4953650;29;20050;-83
2022/04/24 08:57:31;;;;;;;7.90;4.93;;;;;;;13.35;nan;99910.59;4954975;29;20384;-80
2022/04/24 09:00:00;;;;;;;6.15;5.22;;;;;;;13.85;nan;99903.03;4949457;29;20050;-81
2022/04/24 09:02:50;;;;;;;6.75;4.07;;;;;;;14.52;nan;99907.00;4934797;29;20035;-84
2022/04/24 09:05:17;;;;;;;8.07;5.15;;;;;;;14.18;nan;99913.03;4936676;28;20038;-82
2022/04/24 09:07:45;;;;;;;8.20;4.05;;;;;;;13.77;nan;99919.31;4940550;29;20182;-82
2022/04/24 09:10:33;;;;;;;5.88;4.25;;;;;;;13.21;nan;99905.91;4951820;28;20099;-81
2022/04/24 09:13:03;;;;;;;8.65;4.32;;;;;;;13.26;nan;99908.34;4937595;29;20572;-84
2022/04/24 09:15:34;;;;;;;6.07;4.50;;;;;;;13.52;nan;99908.06;4957425;28;20437;-79
2022/04/24 09:18:02;;;;;;;6.00;4.50;;;;;;;14.00;nan;99899.69;4957066;29;20106;-80
2022/04/24 09:20:41;;;;;;;5.25;3.83;;;;;;;14.36;nan;99904.16;4954037;29;20460;-79
2022/04/24 09:23:07;;;;;;;5.75;3.67;;;;;;;14.02;nan;99900.47;4937202;28;20134;-87
2022/04/24 09:25:41;;;;;;;7.57;5.05;;;;;;;14.68;nan;99904.44;4954372;29;20114;-80
2022/04/24 09:28:09;;;;;;;8.70;4.28;;;;;;;15.33;nan;99898.44;4956581;28;20123;-81
2022/04/24 09:30:36;;;;;;;4.97;4.07;;;;;;;15.23;nan;99902.53;4957626;28;20134;-84
2022/04/24 09:33:07;;;;;;;8.07;4.68;;;;;;;15.39;nan;99898.13;4958390;29;20481;-82
2022/04/24 09:35:37;;;;;;;5.32;3.60;;;;;;;14.91;nan;99905.03;4942271;29;20098;-82
2022/04/24 09:38:13;;;;;;;7.20;3.90;;;;;;;14.57;nan;99903.19;4957029;28;20091;-81
2022/04/24 09:40:42;;;;;;;6.80;4.00;;;;;;;14.80;nan;99910.03;4949925;28;20489;-81
2022/04/24 09:43:14;;;;;;;6.53;4.28;;;;;;;14.39;nan;99911.16;4955427;28;20091;-82
2022/04/24 09:45:47;;;;;;;7.28;4.60;;;;;;;15.18;nan;99910.75;4961854;28;20039;-79
2022/04/24 09:48:20;;;;;;;7.68;4.82;;;;;;;14.47;nan;99915.19;4973545;28;20039;-81
2022/04/24 09:50:50;;;;;;;6.72;4.18;;;;;;;14.63;nan;99915.31;4954613;28;20039;-80
2022/04/24 09:53:20;;;;;;;5.97;4.35;;;;;;;15.22;nan;99906.13;4937302;28;20484;-78
2022/04/24 09:55:51;;;;;;;5.95;4.10;;;;;;;15.48;nan;99910.09;4955086;28;20471;-79
2022/04/24 09:58:21;;;;;;;6.88;4.75;;;;;;;15.52;nan;99916.09;4952306;28;20110;-80
2022/04/24 10:00:51;;;;;;;6.55;4.47;;;;;;;15.88;nan;99908.84;4950072;28;20050;-78
2022/04/24 10:03:19;;;;;;;7.18;4.63;;;;;;;15.61;nan;99921.84;4953048;28;20039;-80
2022/04/24 10:05:47;;;;;;;9.50;4.97;;;;;;;15.07;nan;99918.41;4965161;28;20110;-79
2022/04/24 10:08:16;;;;;;;7.88;5.50;;;;;;;15.21;nan;99918.56;4933448;28;20495;-80
2022/04/24 10:10:50;;;;;;;;;;;;;;;14.39;nan;99920.00;4952100;28;20611;-82
2022/04/24 10:13:18;;;;;;;9.98;5.47;;;;;;;14.34;nan;99914.03;4957164;28;19990;-83
2022/04/24 10:15:48;;;;;;;6.40;4.57;;;;;;;14.39;nan;99906.72;4957977;28;20134;-85
2022/04/24 10:18:35;;;;;;;6.78;4.88;;;;;;;14.84;nan;99900.09;4939028;28;20134;-85
2022/04/24 10:21:23;;;;;;;9.35;4.43;;;;;;;15.75;nan;99902.47;4950364;28;20130;-82
2022/04/24 10:23:50;;;;;;;6.78;4.20;;;;;;;15.86;nan;99905.41;4954678;29;20590;-83
2022/04/24 10:26:22;;;;;;;8.35;4.47;;;;;;;15.67;nan;99892.22;4957682;28;20118;-80
2022/04/24 10:29:01;;;;;;;5.95;4.20;;;;;;;15.23;nan;99893.69;4939246;29;20049;-81
2022/04/24 10:31:28;;;;;;;7.65;4.40;;;;;;;14.75;nan;99903.22;4955359;29;20473;-79
2022/04/24 10:33:55;;;;;;;11.57;4.40;;;;;;;15.11;nan;99890.69;4933808;29;20045;-78
2022/04/24 10:36:23;;;;;;;8.38;4.07;;;;;;;16.02;nan;99882.31;4954193;28;20492;-79
2022/04/24 10:38:53;;;;;;;7.32;4.43;;;;;;;16.27;nan;99880.94;4953263;28;20046;-79
2022/04/24 10:41:40;;;;;;;8.40;4.43;;;;;;;16.88;nan;99885.44;4951300;28;20035;-78
2022/04/24 10:44:08;;;;;;;6.65;5.18;;;;;;;16.71;nan;99883.75;4938870;29;20365;-79
2022/04/24 10:46:40;;;;;;;8.82;4.85;;;;;;;16.60;nan;99881.69;4969024;28;20063;-79
2022/04/24 10:49:14;;;;;;;5.57;4.50;;;;;;;16.59;nan;99882.66;4967131;28;20091;-82
2022/04/24 10:51:57;;;;;;;6.95;4.93;;;;;;;16.75;nan;99887.13;4971509;29;20082;-79
2022/04/24 10:54:35;;;;;;;6.80;4.68;;;;;;;16.50;nan;99871.66;4966383;28;20119;-83
2022/04/24 10:57:21;;;;;;;7.40;4.63;;;;;;;16.29;nan;99863.91;4944364;29;20111;-80
2022/04/24 10:59:51;;;;;;;8.88;4.60;;;;;;;16.39;nan;99868.72;4959440;28;20110;-79
2022/04/24 11:02:30;;;;;;;8.50;4.47;;;;;;;16.40;nan;99870.47;4947580;28;20100;-79
2022/04/24 11:05:09;;;;;;;20.50;6.43;;;;;;;16.62;nan;99868.28;4957231;28;20116;-80
2022/04/24 11:07:37;;;;;;;8.00;4.18;;;;;;;16.72;nan;99852.63;4969374;28;20114;-80
2022/04/24 11:10:06;;;;;;;6.63;5.05;;;;;;;17.20;nan;99853.31;4952826;29;20100;-80
2022/04/24 11:12:33;;;;;;;7.85;4.40;;;;;;;16.96;nan;99852.97;4970159;28;20074;-82
2022/04/24 11:15:11;;;;;;;7.85;4.47;;;;;;;17.15;nan;99858.91;4971183;29;20163;-79
2022/04/24 11:17:38;;;;;;;6.25;4.18;;;;;;;17.52;nan;99860.22;4969165;29;20082;-80
2022/04/24 11:20:10;;;;;;;6.53;4.72;;;;;;;17.17;nan;99863.25;4967496;28;20079;-82
2022/04/24 11:22:49;;;;;;;5.72;4.72;;;;;;;17.00;nan;99860.72;4956530;29;20123;-83
2022/04/24 11:25:17;;;;;;;6.68;4.90;;;;;;;16.38;nan;99853.69;4954193;28;20087;-80
2022/04/24 11:27:45;;;;;;;8.05;5.07;;;;;;;16.51;nan;99862.69;4978687;28;20062;-79
2022/04/24 11:30:20;;;;;;;5.75;4.22;;;;;;;16.31;nan;99854.06;4951323;28;20103;-82
2022/04/24 11:33:05;;;;;;;7.63;5.45;;;;;;;16.48;nan;99850.41;4949186;29;20134;-81
2022/04/24 11:35:36;;;;;;;4.95;4.13;;;;;;;17.28;nan;99835.88;4965186;29;20058;-81
2022/04/24 11:38:04;;;;;;;9.02;4.70;;;;;;;18.14;nan;99849.22;4950730;28;20551;-80
2022/04/24 11:40:33;;;;;;;10.38;6.45;;;;;;;18.14;nan;99834.03;4952944;29;20090;-80
2022/04/24 11:43:16;;;;;;;7.80;4.53;;;;;;;17.93;nan;99840.78;4966936;28;20131;-82
2022/04/24 11:51:39;;;;;;;9.07;5.47;;;;;;;16.81;nan;99844.94;4935869;29;20099;-78
2022/04/24 11:54:09;;;;;;;6.68;4.50;;;;;;;16.77;nan;99840.75;4931117;28;20078;-79